sensor_id;sensor_type;location;lat;lon;timestamp;pressure;altitude;pressure_sealevel;temperature;humidity
15604;BME280;7902;49.042;9.092;2023-04-27T00:01:25;99197.59;;;12.96;49.56
15604;BME280;7902;49.042;9.092;2023-04-27T00:03:51;99186.56;;;12.91;50.21
15604;BME280;7902;49.042;9.092;2023-04-27T00:06:16;99193.41;;;12.93;49.55
15604;BME280;7902;49.042;9.092;2023-04-27T00:08:42;99192.81;;;12.90;50.14
15604;BME280;7902;49.042;9.092;2023-04-27T00:11:08;99195.31;;;12.91;50.01
15604;BME280;7902;49.042;9.092;2023-04-27T00:13:34;99198.31;;;12.87;49.64
15604;BME280;7902;49.042;9.092;2023-04-27T00:16:00;99200.50;;;12.82;50.31
15604;BME280;7902;49.042;9.092;2023-04-27T00:18:29;99198.84;;;12.81;50.26
15604;BME280;7902;49.042;9.092;2023-04-27T00:20:56;99196.69;;;12.74;50.50
15604;BME280;7902;49.042;9.092;2023-04-27T00:23:21;99187.94;;;12.74;50.54
15604;BME280;7902;49.042;9.092;2023-04-27T00:25:47;99188.56;;;12.66;51.13
15604;BME280;7902;49.042;9.092;2023-04-27T00:28:13;99185.19;;;12.64;50.96
15604;BME280;7902;49.042;9.092;2023-04-27T00:30:39;99187.47;;;12.58;51.13
15604;BME280;7902;49.042;9.092;2023-04-27T00:33:05;99183.28;;;12.55;51.31
15604;BME280;7902;49.042;9.092;2023-04-27T00:35:32;99179.72;;;12.56;50.73
15604;BME280;7902;49.042;9.092;2023-04-27T00:37:58;99171.91;;;12.55;50.77
15604;BME280;7902;49.042;9.092;2023-04-27T00:40:24;99177.06;;;12.56;50.43
15604;BME280;7902;49.042;9.092;2023-04-27T00:42:50;99176.34;;;12.54;50.99
15604;BME280;7902;49.042;9.092;2023-04-27T00:45:15;99178.13;;;12.54;50.88
15604;BME280;7902;49.042;9.092;2023-04-27T00:47:42;99175.50;;;12.54;50.35
15604;BME280;7902;49.042;9.092;2023-04-27T00:50:09;99171.19;;;12.53;50.04
15604;BME280;7902;49.042;9.092;2023-04-27T00:52:37;99167.97;;;12.49;50.42
15604;BME280;7902;49.042;9.092;2023-04-27T00:55:03;99176.59;;;12.51;50.00
15604;BME280;7902;49.042;9.092;2023-04-27T00:57:30;99173.00;;;12.52;50.14
15604;BME280;7902;49.042;9.092;2023-04-27T01:00:00;99168.56;;;12.53;50.24
15604;BME280;7902;49.042;9.092;2023-04-27T01:02:29;99173.25;;;12.49;49.82
15604;BME280;7902;49.042;9.092;2023-04-27T01:04:55;99167.97;;;12.49;50.05
15604;BME280;7902;49.042;9.092;2023-04-27T01:07:25;99178.38;;;12.40;50.01
15604;BME280;7902;49.042;9.092;2023-04-27T01:09:51;99175.06;;;12.38;49.73
15604;BME280;7902;49.042;9.092;2023-04-27T01:12:17;99164.38;;;12.39;50.87
15604;BME280;7902;49.042;9.092;2023-04-27T01:14:43;99178.38;;;12.40;50.40
15604;BME280;7902;49.042;9.092;2023-04-27T01:17:09;99181.75;;;12.42;50.31
15604;BME280;7902;49.042;9.092;2023-04-27T01:19:35;99185.22;;;12.42;50.25
15604;BME280;7902;49.042;9.092;2023-04-27T01:22:01;99175.91;;;12.38;50.66
15604;BME280;7902;49.042;9.092;2023-04-27T01:24:27;99178.88;;;12.33;50.66
15604;BME280;7902;49.042;9.092;2023-04-27T01:26:53;99183.06;;;12.36;50.05
15604;BME280;7902;49.042;9.092;2023-04-27T01:29:19;99174.22;;;12.37;50.27
15604;BME280;7902;49.042;9.092;2023-04-27T01:31:46;99181.16;;;12.38;49.76
15604;BME280;7902;49.042;9.092;2023-04-27T01:34:11;99178.88;;;12.33;50.24
15604;BME280;7902;49.042;9.092;2023-04-27T01:36:37;99177.94;;;12.23;50.66
15604;BME280;7902;49.042;9.092;2023-04-27T01:39:03;99186.88;;;12.21;50.25
15604;BME280;7902;49.042;9.092;2023-04-27T01:41:35;99182.34;;;12.23;50.70
15604;BME280;7902;49.042;9.092;2023-04-27T01:44:01;99185.00;;;12.23;50.21
15604;BME280;7902;49.042;9.092;2023-04-27T01:46:27;99189.53;;;12.21;50.58
15604;BME280;7902;49.042;9.092;2023-04-27T01:48:53;99187.84;;;12.20;50.26
15604;BME280;7902;49.042;9.092;2023-04-27T01:51:19;99185.56;;;12.15;50.52
15604;BME280;7902;49.042;9.092;2023-04-27T01:53:45;99184.50;;;12.07;51.03
15604;BME280;7902;49.042;9.092;2023-04-27T01:56:11;99179.13;;;12.08;50.67
15604;BME280;7902;49.042;9.092;2023-04-27T01:58:37;99189.06;;;12.05;50.40
15604;BME280;7902;49.042;9.092;2023-04-27T02:01:02;99187.00;;;11.97;50.64
15604;BME280;7902;49.042;9.092;2023-04-27T02:03:28;99188.78;;;11.97;50.89
15604;BME280;7902;49.042;9.092;2023-04-27T02:05:54;99188.28;;;11.92;50.93
15604;BME280;7902;49.042;9.092;2023-04-27T02:08:20;99190.47;;;11.98;50.85
15604;BME280;7902;49.042;9.092;2023-04-27T02:10:46;99183.28;;;11.88;51.27
15604;BME280;7902;49.042;9.092;2023-04-27T02:13:12;99193.19;;;11.85;51.58
15604;BME280;7902;49.042;9.092;2023-04-27T02:15:38;99193.75;;;11.77;51.46
15604;BME280;7902;49.042;9.092;2023-04-27T02:18:04;99185.06;;;11.77;51.88
15604;BME280;7902;49.042;9.092;2023-04-27T02:20:31;99197.88;;;11.81;51.90
15604;BME280;7902;49.042;9.092;2023-04-27T02:22:57;99195.69;;;11.75;51.34
15604;BME280;7902;49.042;9.092;2023-04-27T02:25:23;99198.75;;;11.69;52.25
15604;BME280;7902;49.042;9.092;2023-04-27T02:27:49;99200.00;;;11.76;51.57
15604;BME280;7902;49.042;9.092;2023-04-27T02:30:15;99199.03;;;11.77;50.66
15604;BME280;7902;49.042;9.092;2023-04-27T02:32:41;99197.47;;;11.75;50.97
15604;BME280;7902;49.042;9.092;2023-04-27T02:35:07;99208.59;;;11.78;50.82
15604;BME280;7902;49.042;9.092;2023-04-27T02:37:34;99203.22;;;11.80;51.48
15604;BME280;7902;49.042;9.092;2023-04-27T02:40:00;99206.81;;;11.79;50.76
15604;BME280;7902;49.042;9.092;2023-04-27T02:42:26;99200.72;;;11.78;50.73
15604;BME280;7902;49.042;9.092;2023-04-27T02:44:51;99208.00;;;11.75;51.31
15604;BME280;7902;49.042;9.092;2023-04-27T02:47:17;99217.44;;;11.77;50.53
15604;BME280;7902;49.042;9.092;2023-04-27T02:49:43;99207.66;;;11.79;50.60
15604;BME280;7902;49.042;9.092;2023-04-27T02:52:09;99214.09;;;11.75;50.60
15604;BME280;7902;49.042;9.092;2023-04-27T02:54:35;99219.56;;;11.72;50.61
15604;BME280;7902;49.042;9.092;2023-04-27T02:57:01;99218.09;;;11.68;50.63
15604;BME280;7902;49.042;9.092;2023-04-27T02:59:27;99219.69;;;11.71;50.98
15604;BME280;7902;49.042;9.092;2023-04-27T03:01:53;99210.75;;;11.73;50.52
15604;BME280;7902;49.042;9.092;2023-04-27T03:04:19;99212.41;;;11.74;50.87
15604;BME280;7902;49.042;9.092;2023-04-27T03:06:44;99209.25;;;11.69;51.00
15604;BME280;7902;49.042;9.092;2023-04-27T03:09:11;99204.00;;;11.69;50.27
15604;BME280;7902;49.042;9.092;2023-04-27T03:11:37;99202.09;;;11.71;50.40
15604;BME280;7902;49.042;9.092;2023-04-27T03:14:04;99207.47;;;11.70;50.04
15604;BME280;7902;49.042;9.092;2023-04-27T03:16:31;99220.03;;;11.66;50.80
15604;BME280;7902;49.042;9.092;2023-04-27T03:18:57;99220.63;;;11.70;50.87
15604;BME280;7902;49.042;9.092;2023-04-27T03:21:23;99218.84;;;11.70;50.26
15604;BME280;7902;49.042;9.092;2023-04-27T03:23:49;99210.94;;;11.70;50.27
15604;BME280;7902;49.042;9.092;2023-04-27T03:26:15;99205.69;;;11.70;51.07
15604;BME280;7902;49.042;9.092;2023-04-27T03:28:41;99211.69;;;11.72;50.42
15604;BME280;7902;49.042;9.092;2023-04-27T03:31:09;99202.84;;;11.73;50.48
15604;BME280;7902;49.042;9.092;2023-04-27T03:33:35;99210.94;;;11.70;51.16
15604;BME280;7902;49.042;9.092;2023-04-27T03:36:03;99207.38;;;11.71;50.56
15604;BME280;7902;49.042;9.092;2023-04-27T03:38:29;99204.75;;;11.71;50.73
15604;BME280;7902;49.042;9.092;2023-04-27T03:40:56;99211.69;;;11.72;51.39
15604;BME280;7902;49.042;9.092;2023-04-27T03:43:22;99207.16;;;11.74;51.03
15604;BME280;7902;49.042;9.092;2023-04-27T03:45:48;99208.22;;;11.72;50.88
15604;BME280;7902;49.042;9.092;2023-04-27T03:48:14;99217.91;;;11.71;51.29
15604;BME280;7902;49.042;9.092;2023-04-27T03:50:41;99218.94;;;11.69;50.54
15604;BME280;7902;49.042;9.092;2023-04-27T03:53:07;99221.22;;;11.62;50.84
15604;BME280;7902;49.042;9.092;2023-04-27T03:55:40;99221.06;;;11.64;51.59
15604;BME280;7902;49.042;9.092;2023-04-27T03:58:07;99213.47;;;11.72;51.51
15604;BME280;7902;49.042;9.092;2023-04-27T04:00:35;99218.53;;;11.75;51.45
15604;BME280;7902;49.042;9.092;2023-04-27T04:03:02;99210.75;;;11.73;51.22
15604;BME280;7902;49.042;9.092;2023-04-27T04:05:29;99217.91;;;11.71;51.45
15604;BME280;7902;49.042;9.092;2023-04-27T04:07:56;99220.72;;;11.68;50.33
15604;BME280;7902;49.042;9.092;2023-04-27T04:10:22;99221.72;;;11.67;51.02
15604;BME280;7902;49.042;9.092;2023-04-27T04:12:48;99228.25;;;11.62;50.50
15604;BME280;7902;49.042;9.092;2023-04-27T04:15:14;99229.09;;;11.62;50.92
15604;BME280;7902;49.042;9.092;2023-04-27T04:17:40;99219.53;;;11.61;51.32
15604;BME280;7902;49.042;9.092;2023-04-27T04:20:07;99215.22;;;11.60;51.44
15604;BME280;7902;49.042;9.092;2023-04-27T04:22:36;99226.59;;;11.61;51.45
15604;BME280;7902;49.042;9.092;2023-04-27T04:25:03;99230.84;;;11.74;50.66
15604;BME280;7902;49.042;9.092;2023-04-27T04:27:29;99220.97;;;11.65;51.58
15604;BME280;7902;49.042;9.092;2023-04-27T04:29:56;99223.16;;;11.71;51.10
15604;BME280;7902;49.042;9.092;2023-04-27T04:32:25;99225.06;;;11.69;50.76
15604;BME280;7902;49.042;9.092;2023-04-27T04:34:56;99225.28;;;11.66;51.46
15604;BME280;7902;49.042;9.092;2023-04-27T04:37:22;99213.09;;;11.65;51.73
15604;BME280;7902;49.042;9.092;2023-04-27T04:39:48;99219.63;;;11.60;51.59
15604;BME280;7902;49.042;9.092;2023-04-27T04:42:14;99231.59;;;11.64;51.76
15604;BME280;7902;49.042;9.092;2023-04-27T04:44:41;99215.97;;;11.62;51.88
15604;BME280;7902;49.042;9.092;2023-04-27T04:47:06;99226.59;;;11.61;51.85
15604;BME280;7902;49.042;9.092;2023-04-27T04:49:35;99224.56;;;11.64;51.47
15604;BME280;7902;49.042;9.092;2023-04-27T04:52:01;99233.97;;;11.56;52.34
15604;BME280;7902;49.042;9.092;2023-04-27T04:54:29;99223.84;;;11.62;52.07
15604;BME280;7902;49.042;9.092;2023-04-27T04:56:55;99231.38;;;11.67;51.81
15604;BME280;7902;49.042;9.092;2023-04-27T04:59:23;99231.88;;;11.72;51.95
15604;BME280;7902;49.042;9.092;2023-04-27T05:01:49;99225.88;;;11.70;51.83
15604;BME280;7902;49.042;9.092;2023-04-27T05:04:15;99232.41;;;11.77;50.96
15604;BME280;7902;49.042;9.092;2023-04-27T05:06:43;99236.84;;;11.76;51.98
15604;BME280;7902;49.042;9.092;2023-04-27T05:09:08;99236.50;;;11.68;52.25
15604;BME280;7902;49.042;9.092;2023-04-27T05:11:34;99231.69;;;11.75;52.10
15604;BME280;7902;49.042;9.092;2023-04-27T05:14:00;99239.31;;;11.78;51.64
15604;BME280;7902;49.042;9.092;2023-04-27T05:16:26;99220.47;;;11.84;52.02
15604;BME280;7902;49.042;9.092;2023-04-27T05:18:52;99216.75;;;11.86;52.07
15604;BME280;7902;49.042;9.092;2023-04-27T05:21:19;99230.88;;;11.85;52.25
15604;BME280;7902;49.042;9.092;2023-04-27T05:23:46;99234.22;;;11.87;52.27
15604;BME280;7902;49.042;9.092;2023-04-27T05:26:13;99230.53;;;11.90;51.88
15604;BME280;7902;49.042;9.092;2023-04-27T05:28:40;99235.44;;;11.95;52.42
15604;BME280;7902;49.042;9.092;2023-04-27T05:31:06;99235.09;;;11.99;52.14
15604;BME280;7902;49.042;9.092;2023-04-27T05:33:32;99231.38;;;12.02;51.81
15604;BME280;7902;49.042;9.092;2023-04-27T05:35:58;99236.44;;;12.05;51.95
15604;BME280;7902;49.042;9.092;2023-04-27T05:38:24;99240.00;;;12.04;51.57
15604;BME280;7902;49.042;9.092;2023-04-27T05:40:55;99252.31;;;12.03;51.91
15604;BME280;7902;49.042;9.092;2023-04-27T05:43:22;99254.94;;;12.03;52.08
15604;BME280;7902;49.042;9.092;2023-04-27T05:45:48;99243.13;;;12.09;52.20
15604;BME280;7902;49.042;9.092;2023-04-27T05:48:13;99253.41;;;12.12;52.15
15604;BME280;7902;49.042;9.092;2023-04-27T05:50:39;99257.47;;;12.16;52.92
15604;BME280;7902;49.042;9.092;2023-04-27T05:53:05;99259.66;;;12.22;52.93
15604;BME280;7902;49.042;9.092;2023-04-27T05:55:32;99267.66;;;12.20;52.19
15604;BME280;7902;49.042;9.092;2023-04-27T05:57:58;99261.34;;;12.23;53.19
15604;BME280;7902;49.042;9.092;2023-04-27T06:00:24;99261.56;;;12.31;51.99
15604;BME280;7902;49.042;9.092;2023-04-27T06:02:50;99270.91;;;12.35;53.22
15604;BME280;7902;49.042;9.092;2023-04-27T06:05:16;99264.69;;;12.36;53.42
15604;BME280;7902;49.042;9.092;2023-04-27T06:07:42;99270.06;;;12.35;52.91
15604;BME280;7902;49.042;9.092;2023-04-27T06:10:09;99272.13;;;12.42;52.93
15604;BME280;7902;49.042;9.092;2023-04-27T06:12:36;99266.16;;;12.51;53.21
15604;BME280;7902;49.042;9.092;2023-04-27T06:15:02;99265.53;;;12.59;52.39
15604;BME280;7902;49.042;9.092;2023-04-27T06:17:36;99270.44;;;12.63;52.35
15604;BME280;7902;49.042;9.092;2023-04-27T06:20:04;99266.97;;;12.63;52.55
15604;BME280;7902;49.042;9.092;2023-04-27T06:22:32;99270.81;;;12.70;52.32
15604;BME280;7902;49.042;9.092;2023-04-27T06:24:58;99270.94;;;12.80;52.39
15604;BME280;7902;49.042;9.092;2023-04-27T06:27:23;99275.69;;;12.86;52.09
15604;BME280;7902;49.042;9.092;2023-04-27T06:29:49;99272.00;;;12.88;52.21
15604;BME280;7902;49.042;9.092;2023-04-27T06:32:15;99275.97;;;12.94;51.93
15604;BME280;7902;49.042;9.092;2023-04-27T06:34:41;99269.94;;;13.14;51.31
15604;BME280;7902;49.042;9.092;2023-04-27T06:37:07;99271.41;;;13.18;51.81
15604;BME280;7902;49.042;9.092;2023-04-27T06:39:33;99277.75;;;13.15;52.28
15604;BME280;7902;49.042;9.092;2023-04-27T06:42:00;99284.31;;;13.21;52.29
15604;BME280;7902;49.042;9.092;2023-04-27T06:44:29;99275.84;;;13.17;51.83
15604;BME280;7902;49.042;9.092;2023-04-27T06:46:55;99280.09;;;13.30;51.79
15604;BME280;7902;49.042;9.092;2023-04-27T06:49:21;99285.50;;;13.28;52.23
15604;BME280;7902;49.042;9.092;2023-04-27T06:51:47;99275.28;;;13.35;51.43
15604;BME280;7902;49.042;9.092;2023-04-27T06:54:13;99285.47;;;13.39;52.58
15604;BME280;7902;49.042;9.092;2023-04-27T06:56:39;99293.84;;;13.44;52.75
15604;BME280;7902;49.042;9.092;2023-04-27T06:59:05;99287.25;;;13.50;52.34
15604;BME280;7902;49.042;9.092;2023-04-27T07:01:31;99288.94;;;13.51;52.35
15604;BME280;7902;49.042;9.092;2023-04-27T07:03:57;99290.75;;;13.39;52.20
15604;BME280;7902;49.042;9.092;2023-04-27T07:06:23;99283.03;;;13.47;52.60
15604;BME280;7902;49.042;9.092;2023-04-27T07:08:50;99283.84;;;13.59;51.73
15604;BME280;7902;49.042;9.092;2023-04-27T07:11:16;99283.28;;;13.55;52.30
15604;BME280;7902;49.042;9.092;2023-04-27T07:13:42;99287.41;;;13.69;50.93
15604;BME280;7902;49.042;9.092;2023-04-27T07:16:08;99288.13;;;13.71;50.94
15604;BME280;7902;49.042;9.092;2023-04-27T07:18:34;99294.13;;;13.73;51.04
15604;BME280;7902;49.042;9.092;2023-04-27T07:21:00;99283.88;;;13.80;50.96
15604;BME280;7902;49.042;9.092;2023-04-27T07:23:26;99285.69;;;13.79;50.77
15604;BME280;7902;49.042;9.092;2023-04-27T07:25:52;99282.91;;;13.81;51.47
15604;BME280;7902;49.042;9.092;2023-04-27T07:28:18;99279.91;;;13.85;51.33
15604;BME280;7902;49.042;9.092;2023-04-27T07:30:44;99284.13;;;13.77;50.46
15604;BME280;7902;49.042;9.092;2023-04-27T07:33:11;99278.34;;;13.83;51.32
15604;BME280;7902;49.042;9.092;2023-04-27T07:35:37;99278.50;;;13.70;50.86
15604;BME280;7902;49.042;9.092;2023-04-27T07:38:03;99276.09;;;13.78;50.68
15604;BME280;7902;49.042;9.092;2023-04-27T07:40:29;99276.69;;;13.82;50.59
15604;BME280;7902;49.042;9.092;2023-04-27T07:42:57;99277.63;;;13.81;50.98
15604;BME280;7902;49.042;9.092;2023-04-27T07:45:23;99283.38;;;13.86;50.35
15604;BME280;7902;49.042;9.092;2023-04-27T07:47:57;99284.09;;;13.88;50.68
15604;BME280;7902;49.042;9.092;2023-04-27T07:50:25;99281.78;;;13.94;50.51
15604;BME280;7902;49.042;9.092;2023-04-27T07:52:52;99279.28;;;13.93;50.56
15604;BME280;7902;49.042;9.092;2023-04-27T07:55:23;99269.78;;;13.90;50.34
15604;BME280;7902;49.042;9.092;2023-04-27T07:57:49;99274.91;;;14.03;49.98
15604;BME280;7902;49.042;9.092;2023-04-27T08:00:16;99284.09;;;14.08;49.66
15604;BME280;7902;49.042;9.092;2023-04-27T08:02:42;99282.28;;;14.09;50.60
15604;BME280;7902;49.042;9.092;2023-04-27T08:05:08;99280.19;;;14.03;50.32
15604;BME280;7902;49.042;9.092;2023-04-27T08:07:34;99280.69;;;13.97;50.43
15604;BME280;7902;49.042;9.092;2023-04-27T08:10:00;99277.53;;;14.03;50.27
15604;BME280;7902;49.042;9.092;2023-04-27T08:12:26;99275.47;;;14.06;49.89
15604;BME280;7902;49.042;9.092;2023-04-27T08:14:52;99281.22;;;14.12;50.70
15604;BME280;7902;49.042;9.092;2023-04-27T08:17:18;99276.56;;;14.04;49.69
15604;BME280;7902;49.042;9.092;2023-04-27T08:19:46;99276.38;;;14.17;50.72
15604;BME280;7902;49.042;9.092;2023-04-27T08:22:12;99265.50;;;14.10;50.58
15604;BME280;7902;49.042;9.092;2023-04-27T08:24:38;99265.88;;;14.26;49.76
15604;BME280;7902;49.042;9.092;2023-04-27T08:27:07;99268.47;;;14.17;50.36
15604;BME280;7902;49.042;9.092;2023-04-27T08:29:33;99256.97;;;14.27;49.61
15604;BME280;7902;49.042;9.092;2023-04-27T08:32:01;99264.75;;;14.29;49.77
15604;BME280;7902;49.042;9.092;2023-04-27T08:34:27;99262.97;;;14.29;49.87
15604;BME280;7902;49.042;9.092;2023-04-27T08:36:54;99255.13;;;14.39;49.82
15604;BME280;7902;49.042;9.092;2023-04-27T08:39:20;99255.25;;;14.37;49.98
15604;BME280;7902;49.042;9.092;2023-04-27T08:41:46;99260.19;;;14.52;50.25
15604;BME280;7902;49.042;9.092;2023-04-27T08:44:11;99248.72;;;14.41;49.07
15604;BME280;7902;49.042;9.092;2023-04-27T08:46:38;99248.72;;;14.41;49.72
15604;BME280;7902;49.042;9.092;2023-04-27T08:49:04;99253.31;;;14.39;49.96
15604;BME280;7902;49.042;9.092;2023-04-27T08:51:31;99252.00;;;14.34;50.46
15604;BME280;7902;49.042;9.092;2023-04-27T08:53:57;99256.81;;;14.40;50.50
15604;BME280;7902;49.042;9.092;2023-04-27T08:56:25;99256.25;;;14.46;50.44
15604;BME280;7902;49.042;9.092;2023-04-27T08:58:53;99254.06;;;14.51;49.49
15604;BME280;7902;49.042;9.092;2023-04-27T09:01:20;99253.22;;;14.50;49.93
15604;BME280;7902;49.042;9.092;2023-04-27T09:03:46;99255.19;;;14.48;50.22
15604;BME280;7902;49.042;9.092;2023-04-27T09:06:13;99255.78;;;14.62;49.39
15604;BME280;7902;49.042;9.092;2023-04-27T09:08:44;99247.13;;;14.60;50.17
15604;BME280;7902;49.042;9.092;2023-04-27T09:11:12;99246.06;;;14.62;50.34
15604;BME280;7902;49.042;9.092;2023-04-27T09:13:39;99246.88;;;14.63;49.19
15604;BME280;7902;49.042;9.092;2023-04-27T09:16:06;99246.88;;;14.63;50.29
15604;BME280;7902;49.042;9.092;2023-04-27T09:18:35;99259.00;;;14.65;49.14
15604;BME280;7902;49.042;9.092;2023-04-27T09:21:02;99260.53;;;14.68;50.28
15604;BME280;7902;49.042;9.092;2023-04-27T09:23:30;99256.66;;;14.72;49.33
15604;BME280;7902;49.042;9.092;2023-04-27T09:25:58;99253.06;;;14.73;49.38
15604;BME280;7902;49.042;9.092;2023-04-27T09:28:25;99263.88;;;14.70;50.05
15604;BME280;7902;49.042;9.092;2023-04-27T09:30:56;99267.91;;;14.74;49.85
15604;BME280;7902;49.042;9.092;2023-04-27T09:35:49;99261.44;;;14.78;49.84
15604;BME280;7902;49.042;9.092;2023-04-27T09:38:17;99260.44;;;14.79;48.85
15604;BME280;7902;49.042;9.092;2023-04-27T09:40:43;99256.38;;;14.75;49.83
15604;BME280;7902;49.042;9.092;2023-04-27T09:43:09;99255.88;;;14.81;49.46
15604;BME280;7902;49.042;9.092;2023-04-27T09:45:35;99251.00;;;14.86;50.21
15604;BME280;7902;49.042;9.092;2023-04-27T09:48:03;99249.34;;;14.85;49.83
15604;BME280;7902;49.042;9.092;2023-04-27T09:50:30;99250.72;;;14.89;49.56
15604;BME280;7902;49.042;9.092;2023-04-27T09:52:56;99245.59;;;14.87;50.30
15604;BME280;7902;49.042;9.092;2023-04-27T09:55:26;99246.97;;;14.82;49.09
15604;BME280;7902;49.042;9.092;2023-04-27T10:00:41;99243.38;;;15.02;49.64
15604;BME280;7902;49.042;9.092;2023-04-27T10:03:22;99236.47;;;15.20;48.25
15604;BME280;7902;49.042;9.092;2023-04-27T10:08:52;99236.19;;;15.14;48.71
15604;BME280;7902;49.042;9.092;2023-04-27T10:11:18;99244.69;;;15.17;48.36
15604;BME280;7902;49.042;9.092;2023-04-27T10:13:54;99244.41;;;15.20;47.79
15604;BME280;7902;49.042;9.092;2023-04-27T10:16:20;99239.41;;;15.36;47.65
15604;BME280;7902;49.042;9.092;2023-04-27T10:18:51;99237.19;;;15.42;48.01
15604;BME280;7902;49.042;9.092;2023-04-27T10:21:20;99244.16;;;15.43;47.77
15604;BME280;7902;49.042;9.092;2023-04-27T10:23:50;99236.75;;;15.36;46.92
15604;BME280;7902;49.042;9.092;2023-04-27T10:29:05;99237.66;;;15.56;47.60
15604;BME280;7902;49.042;9.092;2023-04-27T10:31:32;99244.03;;;15.63;46.24
15604;BME280;7902;49.042;9.092;2023-04-27T10:34:05;99236.94;;;15.73;46.73
15604;BME280;7902;49.042;9.092;2023-04-27T10:36:34;99232.91;;;15.60;48.14
15604;BME280;7902;49.042;9.092;2023-04-27T10:39:02;99240.16;;;15.58;48.13
15604;BME280;7902;49.042;9.092;2023-04-27T10:41:35;99243.78;;;15.57;49.11
15604;BME280;7902;49.042;9.092;2023-04-27T10:44:16;99243.78;;;15.57;48.82
15604;BME280;7902;49.042;9.092;2023-04-27T10:46:49;99238.50;;;15.57;47.88
15604;BME280;7902;49.042;9.092;2023-04-27T10:49:15;99233.88;;;15.59;48.02
15604;BME280;7902;49.042;9.092;2023-04-27T10:51:41;99235.69;;;15.68;48.46
15604;BME280;7902;49.042;9.092;2023-04-27T10:54:07;99218.16;;;15.67;47.60
15604;BME280;7902;49.042;9.092;2023-04-27T10:56:33;99226.78;;;15.69;48.02
15604;BME280;7902;49.042;9.092;2023-04-27T10:59:03;99235.41;;;15.90;45.96
15604;BME280;7902;49.042;9.092;2023-04-27T11:01:29;99226.94;;;15.77;48.16
15604;BME280;7902;49.042;9.092;2023-04-27T11:04:00;99222.84;;;15.73;48.13
15604;BME280;7902;49.042;9.092;2023-04-27T11:06:29;99225.94;;;15.78;48.54
15604;BME280;7902;49.042;9.092;2023-04-27T11:08:58;99210.59;;;16.01;45.53
15604;BME280;7902;49.042;9.092;2023-04-27T11:11:24;99213.88;;;16.22;46.39
15604;BME280;7902;49.042;9.092;2023-04-27T11:13:51;99212.50;;;16.08;47.58
15604;BME280;7902;49.042;9.092;2023-04-27T11:16:17;99216.56;;;16.03;48.12
15604;BME280;7902;49.042;9.092;2023-04-27T11:18:44;99209.16;;;15.97;48.09
15604;BME280;7902;49.042;9.092;2023-04-27T11:21:15;99211.06;;;16.23;46.61
15604;BME280;7902;49.042;9.092;2023-04-27T11:23:41;99206.66;;;16.14;47.05
15604;BME280;7902;49.042;9.092;2023-04-27T11:26:18;99203.59;;;16.46;46.57
15604;BME280;7902;49.042;9.092;2023-04-27T11:29:05;99206.19;;;16.29;46.88
15604;BME280;7902;49.042;9.092;2023-04-27T11:31:48;99202.66;;;16.38;46.90
15604;BME280;7902;49.042;9.092;2023-04-27T11:34:19;99216.75;;;16.75;43.96
15604;BME280;7902;49.042;9.092;2023-04-27T11:36:59;99206.25;;;16.83;45.05
15604;BME280;7902;49.042;9.092;2023-04-27T11:39:32;99199.91;;;16.94;44.97
15604;BME280;7902;49.042;9.092;2023-04-27T11:42:17;99207.69;;;16.95;44.68
15604;BME280;7902;49.042;9.092;2023-04-27T11:44:58;99207.56;;;16.70;45.81
15604;BME280;7902;49.042;9.092;2023-04-27T11:47:25;99207.31;;;16.90;45.42
15604;BME280;7902;49.042;9.092;2023-04-27T11:49:55;99211.19;;;16.96;44.67
15604;BME280;7902;49.042;9.092;2023-04-27T11:52:26;99204.63;;;17.18;43.88
15604;BME280;7902;49.042;9.092;2023-04-27T11:54:53;99204.19;;;17.40;43.21
15604;BME280;7902;49.042;9.092;2023-04-27T11:57:25;99192.56;;;17.05;45.51
15604;BME280;7902;49.042;9.092;2023-04-27T11:59:58;99196.50;;;17.01;45.64
15604;BME280;7902;49.042;9.092;2023-04-27T12:02:26;99200.38;;;17.07;45.26
15604;BME280;7902;49.042;9.092;2023-04-27T12:04:52;99194.22;;;17.06;45.45
15604;BME280;7902;49.042;9.092;2023-04-27T12:07:18;99190.25;;;16.75;46.28
15604;BME280;7902;49.042;9.092;2023-04-27T12:09:44;99190.38;;;17.19;44.69
15604;BME280;7902;49.042;9.092;2023-04-27T12:12:11;99180.59;;;17.37;43.94
15604;BME280;7902;49.042;9.092;2023-04-27T12:14:44;99184.63;;;17.23;44.49
15604;BME280;7902;49.042;9.092;2023-04-27T12:17:10;99180.28;;;17.40;44.03
15604;BME280;7902;49.042;9.092;2023-04-27T12:19:36;99176.72;;;17.49;43.79
15604;BME280;7902;49.042;9.092;2023-04-27T12:22:04;99175.19;;;17.29;45.15
15604;BME280;7902;49.042;9.092;2023-04-27T12:24:30;99166.75;;;17.61;43.93
15604;BME280;7902;49.042;9.092;2023-04-27T12:26:57;99165.50;;;17.55;44.40
15604;BME280;7902;49.042;9.092;2023-04-27T12:29:24;99166.72;;;17.25;45.56
15604;BME280;7902;49.042;9.092;2023-04-27T12:31:50;99168.53;;;17.25;45.49
15604;BME280;7902;49.042;9.092;2023-04-27T12:34:16;99164.81;;;17.71;43.50
15604;BME280;7902;49.042;9.092;2023-04-27T12:36:42;99165.41;;;17.47;45.18
15604;BME280;7902;49.042;9.092;2023-04-27T12:39:18;99157.91;;;17.78;43.37
15604;BME280;7902;49.042;9.092;2023-04-27T12:41:46;99162.31;;;17.69;44.75
15604;BME280;7902;49.042;9.092;2023-04-27T12:44:13;99155.34;;;17.50;45.36
15604;BME280;7902;49.042;9.092;2023-04-27T12:46:39;99154.59;;;17.40;45.77
15604;BME280;7902;49.042;9.092;2023-04-27T12:49:06;99157.53;;;17.20;46.06
15604;BME280;7902;49.042;9.092;2023-04-27T12:51:32;99157.03;;;17.16;46.79
15604;BME280;7902;49.042;9.092;2023-04-27T12:53:59;99152.63;;;17.07;46.66
15604;BME280;7902;49.042;9.092;2023-04-27T12:56:26;99154.22;;;17.18;46.47
15604;BME280;7902;49.042;9.092;2023-04-27T12:58:52;99148.03;;;17.52;45.68
15604;BME280;7902;49.042;9.092;2023-04-27T13:01:18;99146.78;;;17.39;45.78
15604;BME280;7902;49.042;9.092;2023-04-27T13:03:46;99143.97;;;17.40;45.65
15604;BME280;7902;49.042;9.092;2023-04-27T13:06:12;99146.75;;;17.74;45.34
15604;BME280;7902;49.042;9.092;2023-04-27T13:08:38;99140.34;;;17.59;45.30
15604;BME280;7902;49.042;9.092;2023-04-27T13:11:05;99134.19;;;17.41;45.95
15604;BME280;7902;49.042;9.092;2023-04-27T13:13:31;99140.53;;;17.48;46.40
15604;BME280;7902;49.042;9.092;2023-04-27T13:15:57;99144.94;;;17.75;45.87
15604;BME280;7902;49.042;9.092;2023-04-27T13:18:23;99148.91;;;17.96;44.94
15604;BME280;7902;49.042;9.092;2023-04-27T13:20:50;99147.47;;;17.59;46.17